sensor_id;sensor_type;location;lat;lon;timestamp;P1;durP1;ratioP1;P2;durP2;ratioP2
16824;SDS011;8529;48.108;-1.706;2024-01-07T00:01:07;9.10;;;5.63;;
16824;SDS011;8529;48.108;-1.706;2024-01-07T00:03:35;8.20;;;5.27;;
16824;SDS011;8529;48.108;-1.706;2024-01-07T00:06:02;8.03;;;5.50;;
16824;SDS011;8529;48.108;-1.706;2024-01-07T00:08:31;8.93;;;5.90;;
16824;SDS011;8529;48.108;-1.706;2024-01-07T00:10:58;9.33;;;5.97;;
16824;SDS011;8529;48.108;-1.706;2024-01-07T00:13:25;7.50;;;5.20;;
16824;SDS011;8529;48.108;-1.706;2024-01-07T00:15:52;7.40;;;5.23;;
16824;SDS011;8529;48.108;-1.706;2024-01-07T00:18:20;7.53;;;5.10;;
16824;SDS011;8529;48.108;-1.706;2024-01-07T00:20:49;8.37;;;5.57;;
16824;SDS011;8529;48.108;-1.706;2024-01-07T00:23:16;8.60;;;5.87;;
16824;SDS011;8529;48.108;-1.706;2024-01-07T00:25:44;9.47;;;5.67;;
16824;SDS011;8529;48.108;-1.706;2024-01-07T00:28:12;11.43;;;5.80;;
16824;SDS011;8529;48.108;-1.706;2024-01-07T00:30:39;10.83;;;5.93;;
16824;SDS011;8529;48.108;-1.706;2024-01-07T00:33:06;9.20;;;6.10;;
16824;SDS011;8529;48.108;-1.706;2024-01-07T00:35:33;9.27;;;5.50;;
16824;SDS011;8529;48.108;-1.706;2024-01-07T00:38:00;11.23;;;5.90;;
16824;SDS011;8529;48.108;-1.706;2024-01-07T00:40:27;8.10;;;5.50;;
16824;SDS011;8529;48.108;-1.706;2024-01-07T00:42:56;9.73;;;5.17;;
16824;SDS011;8529;48.108;-1.706;2024-01-07T00:45:23;7.63;;;5.37;;
16824;SDS011;8529;48.108;-1.706;2024-01-07T00:47:50;7.37;;;5.13;;
16824;SDS011;8529;48.108;-1.706;2024-01-07T00:50:19;11.13;;;5.50;;
16824;SDS011;8529;48.108;-1.706;2024-01-07T00:52:47;11.60;;;4.93;;
16824;SDS011;8529;48.108;-1.706;2024-01-07T00:55:14;6.37;;;4.60;;
16824;SDS011;8529;48.108;-1.706;2024-01-07T00:57:41;12.00;;;4.83;;
16824;SDS011;8529;48.108;-1.706;2024-01-07T01:00:10;11.33;;;5.73;;
16824;SDS011;8529;48.108;-1.706;2024-01-07T01:02:37;11.37;;;5.93;;
16824;SDS011;8529;48.108;-1.706;2024-01-07T01:05:05;7.23;;;4.43;;
16824;SDS011;8529;48.108;-1.706;2024-01-07T01:07:32;9.30;;;6.00;;
16824;SDS011;8529;48.108;-1.706;2024-01-07T01:09:59;7.47;;;5.00;;
16824;SDS011;8529;48.108;-1.706;2024-01-07T01:12:27;9.07;;;6.23;;
16824;SDS011;8529;48.108;-1.706;2024-01-07T01:14:54;12.03;;;5.80;;
16824;SDS011;8529;48.108;-1.706;2024-01-07T01:17:23;9.17;;;5.37;;
16824;SDS011;8529;48.108;-1.706;2024-01-07T01:19:50;9.60;;;5.40;;
16824;SDS011;8529;48.108;-1.706;2024-01-07T01:22:17;8.37;;;5.40;;
16824;SDS011;8529;48.108;-1.706;2024-01-07T01:24:44;6.83;;;4.83;;
16824;SDS011;8529;48.108;-1.706;2024-01-07T01:27:12;7.77;;;5.10;;
16824;SDS011;8529;48.108;-1.706;2024-01-07T01:29:40;8.87;;;5.33;;
16824;SDS011;8529;48.108;-1.706;2024-01-07T01:32:07;10.10;;;5.53;;
16824;SDS011;8529;48.108;-1.706;2024-01-07T01:34:36;8.90;;;5.57;;
16824;SDS011;8529;48.108;-1.706;2024-01-07T01:37:03;7.03;;;5.43;;
16824;SDS011;8529;48.108;-1.706;2024-01-07T01:39:30;9.13;;;5.47;;
16824;SDS011;8529;48.108;-1.706;2024-01-07T01:41:57;10.03;;;5.63;;
16824;SDS011;8529;48.108;-1.706;2024-01-07T01:44:24;10.47;;;5.50;;
16824;SDS011;8529;48.108;-1.706;2024-01-07T01:46:53;11.67;;;5.37;;
16824;SDS011;8529;48.108;-1.706;2024-01-07T01:49:20;7.80;;;4.77;;
16824;SDS011;8529;48.108;-1.706;2024-01-07T01:51:49;10.17;;;4.50;;
16824;SDS011;8529;48.108;-1.706;2024-01-07T01:54:18;8.73;;;5.30;;
16824;SDS011;8529;48.108;-1.706;2024-01-07T01:56:45;7.27;;;4.50;;
16824;SDS011;8529;48.108;-1.706;2024-01-07T01:59:13;7.20;;;4.80;;
16824;SDS011;8529;48.108;-1.706;2024-01-07T02:01:41;12.60;;;4.97;;
16824;SDS011;8529;48.108;-1.706;2024-01-07T02:04:09;8.23;;;5.00;;
16824;SDS011;8529;48.108;-1.706;2024-01-07T02:06:36;6.87;;;4.70;;
16824;SDS011;8529;48.108;-1.706;2024-01-07T02:09:04;8.37;;;5.57;;
16824;SDS011;8529;48.108;-1.706;2024-01-07T02:11:31;8.77;;;5.57;;
16824;SDS011;8529;48.108;-1.706;2024-01-07T02:13:59;9.17;;;6.23;;
16824;SDS011;8529;48.108;-1.706;2024-01-07T02:16:26;9.50;;;6.73;;
16824;SDS011;8529;48.108;-1.706;2024-01-07T02:18:53;9.77;;;5.87;;
16824;SDS011;8529;48.108;-1.706;2024-01-07T02:21:20;11.90;;;6.43;;
16824;SDS011;8529;48.108;-1.706;2024-01-07T02:23:47;13.53;;;7.23;;
16824;SDS011;8529;48.108;-1.706;2024-01-07T02:26:16;9.30;;;5.77;;
16824;SDS011;8529;48.108;-1.706;2024-01-07T02:28:43;8.47;;;5.57;;
16824;SDS011;8529;48.108;-1.706;2024-01-07T02:31:10;6.40;;;5.23;;
16824;SDS011;8529;48.108;-1.706;2024-01-07T02:33:37;8.03;;;4.87;;
16824;SDS011;8529;48.108;-1.706;2024-01-07T02:36:05;11.03;;;5.17;;
16824;SDS011;8529;48.108;-1.706;2024-01-07T02:38:33;9.47;;;5.17;;
16824;SDS011;8529;48.108;-1.706;2024-01-07T02:41:00;9.53;;;5.03;;
16824;SDS011;8529;48.108;-1.706;2024-01-07T02:43:29;9.37;;;4.97;;
16824;SDS011;8529;48.108;-1.706;2024-01-07T02:45:56;9.67;;;4.40;;
16824;SDS011;8529;48.108;-1.706;2024-01-07T02:48:23;10.27;;;4.60;;
16824;SDS011;8529;48.108;-1.706;2024-01-07T02:50:50;7.27;;;4.17;;
16824;SDS011;8529;48.108;-1.706;2024-01-07T02:53:17;9.13;;;4.33;;
16824;SDS011;8529;48.108;-1.706;2024-01-07T02:55:44;7.83;;;4.40;;
16824;SDS011;8529;48.108;-1.706;2024-01-07T02:58:12;7.73;;;4.37;;
16824;SDS011;8529;48.108;-1.706;2024-01-07T03:00:40;6.13;;;4.67;;
16824;SDS011;8529;48.108;-1.706;2024-01-07T03:03:07;7.10;;;5.43;;
16824;SDS011;8529;48.108;-1.706;2024-01-07T03:05:34;9.30;;;6.40;;
16824;SDS011;8529;48.108;-1.706;2024-01-07T03:08:02;8.93;;;5.10;;
16824;SDS011;8529;48.108;-1.706;2024-01-07T03:10:29;12.40;;;4.97;;
16824;SDS011;8529;48.108;-1.706;2024-01-07T03:12:56;7.67;;;5.23;;
16824;SDS011;8529;48.108;-1.706;2024-01-07T03:15:23;7.83;;;4.77;;
16824;SDS011;8529;48.108;-1.706;2024-01-07T03:17:52;7.77;;;4.50;;
16824;SDS011;8529;48.108;-1.706;2024-01-07T03:20:19;6.23;;;4.40;;
16824;SDS011;8529;48.108;-1.706;2024-01-07T03:22:46;7.50;;;4.77;;
16824;SDS011;8529;48.108;-1.706;2024-01-07T03:25:13;9.37;;;4.90;;
16824;SDS011;8529;48.108;-1.706;2024-01-07T03:27:40;9.07;;;5.13;;
16824;SDS011;8529;48.108;-1.706;2024-01-07T03:30:08;11.13;;;5.30;;
16824;SDS011;8529;48.108;-1.706;2024-01-07T03:32:35;8.80;;;5.70;;
16824;SDS011;8529;48.108;-1.706;2024-01-07T03:35:04;10.30;;;5.50;;
16824;SDS011;8529;48.108;-1.706;2024-01-07T03:37:31;8.40;;;5.40;;
16824;SDS011;8529;48.108;-1.706;2024-01-07T03:39:59;8.57;;;4.60;;
16824;SDS011;8529;48.108;-1.706;2024-01-07T03:42:26;6.87;;;4.50;;
16824;SDS011;8529;48.108;-1.706;2024-01-07T03:44:53;7.53;;;4.63;;
16824;SDS011;8529;48.108;-1.706;2024-01-07T03:47:20;8.47;;;4.63;;
16824;SDS011;8529;48.108;-1.706;2024-01-07T03:49:47;11.57;;;5.10;;
16824;SDS011;8529;48.108;-1.706;2024-01-07T03:52:16;5.97;;;3.90;;
16824;SDS011;8529;48.108;-1.706;2024-01-07T03:54:43;7.83;;;3.90;;
16824;SDS011;8529;48.108;-1.706;2024-01-07T03:57:10;8.17;;;3.80;;
16824;SDS011;8529;48.108;-1.706;2024-01-07T03:59:37;9.80;;;4.20;;
16824;SDS011;8529;48.108;-1.706;2024-01-07T04:02:04;6.07;;;3.70;;
16824;SDS011;8529;48.108;-1.706;2024-01-07T04:04:31;8.07;;;3.80;;
16824;SDS011;8529;48.108;-1.706;2024-01-07T04:06:58;6.47;;;3.67;;
16824;SDS011;8529;48.108;-1.706;2024-01-07T04:09:27;3.90;;;3.13;;
16824;SDS011;8529;48.108;-1.706;2024-01-07T04:11:54;6.77;;;3.77;;
16824;SDS011;8529;48.108;-1.706;2024-01-07T04:14:21;6.57;;;3.73;;
16824;SDS011;8529;48.108;-1.706;2024-01-07T04:16:48;7.77;;;3.70;;
16824;SDS011;8529;48.108;-1.706;2024-01-07T04:19:15;7.43;;;3.60;;
16824;SDS011;8529;48.108;-1.706;2024-01-07T04:21:45;6.13;;;3.57;;
16824;SDS011;8529;48.108;-1.706;2024-01-07T04:24:13;9.77;;;3.60;;
16824;SDS011;8529;48.108;-1.706;2024-01-07T04:26:42;6.50;;;3.67;;
16824;SDS011;8529;48.108;-1.706;2024-01-07T04:29:09;7.83;;;3.80;;
16824;SDS011;8529;48.108;-1.706;2024-01-07T04:31:36;6.13;;;3.70;;
16824;SDS011;8529;48.108;-1.706;2024-01-07T04:34:03;7.07;;;3.77;;
16824;SDS011;8529;48.108;-1.706;2024-01-07T04:36:30;5.80;;;3.60;;
16824;SDS011;8529;48.108;-1.706;2024-01-07T04:38:57;5.43;;;3.50;;
16824;SDS011;8529;48.108;-1.706;2024-01-07T04:41:24;5.60;;;3.13;;
16824;SDS011;8529;48.108;-1.706;2024-01-07T04:43:53;6.67;;;3.50;;
16824;SDS011;8529;48.108;-1.706;2024-01-07T04:46:20;5.97;;;2.93;;
16824;SDS011;8529;48.108;-1.706;2024-01-07T04:48:47;5.53;;;3.33;;
16824;SDS011;8529;48.108;-1.706;2024-01-07T04:51:14;8.23;;;3.47;;
16824;SDS011;8529;48.108;-1.706;2024-01-07T04:53:41;7.17;;;3.37;;
16824;SDS011;8529;48.108;-1.706;2024-01-07T04:56:09;4.83;;;2.83;;
16824;SDS011;8529;48.108;-1.706;2024-01-07T04:58:36;9.27;;;3.53;;
16824;SDS011;8529;48.108;-1.706;2024-01-07T05:01:04;6.17;;;3.03;;
16824;SDS011;8529;48.108;-1.706;2024-01-07T05:03:31;5.10;;;3.30;;
16824;SDS011;8529;48.108;-1.706;2024-01-07T05:05:59;10.93;;;2.93;;
16824;SDS011;8529;48.108;-1.706;2024-01-07T05:08:27;4.93;;;3.17;;
16824;SDS011;8529;48.108;-1.706;2024-01-07T05:10:54;3.43;;;2.60;;
16824;SDS011;8529;48.108;-1.706;2024-01-07T05:13:21;6.33;;;3.03;;
16824;SDS011;8529;48.108;-1.706;2024-01-07T05:15:48;8.47;;;4.60;;
16824;SDS011;8529;48.108;-1.706;2024-01-07T05:18:19;6.90;;;3.90;;
16824;SDS011;8529;48.108;-1.706;2024-01-07T05:20:47;6.00;;;3.00;;
16824;SDS011;8529;48.108;-1.706;2024-01-07T05:23:14;7.00;;;3.03;;
16824;SDS011;8529;48.108;-1.706;2024-01-07T05:25:42;8.00;;;3.10;;
16824;SDS011;8529;48.108;-1.706;2024-01-07T05:28:09;7.17;;;3.10;;
16824;SDS011;8529;48.108;-1.706;2024-01-07T05:30:36;7.83;;;3.20;;
16824;SDS011;8529;48.108;-1.706;2024-01-07T05:33:03;5.17;;;3.07;;
16824;SDS011;8529;48.108;-1.706;2024-01-07T05:35:32;9.17;;;3.00;;
16824;SDS011;8529;48.108;-1.706;2024-01-07T05:37:59;5.93;;;3.17;;
16824;SDS011;8529;48.108;-1.706;2024-01-07T05:40:26;5.40;;;2.70;;
16824;SDS011;8529;48.108;-1.706;2024-01-07T05:42:54;12.40;;;3.17;;
16824;SDS011;8529;48.108;-1.706;2024-01-07T05:45:21;5.63;;;2.87;;
16824;SDS011;8529;48.108;-1.706;2024-01-07T05:47:48;7.73;;;3.13;;
16824;SDS011;8529;48.108;-1.706;2024-01-07T05:50:15;5.03;;;3.20;;
16824;SDS011;8529;48.108;-1.706;2024-01-07T05:52:45;5.03;;;3.33;;
16824;SDS011;8529;48.108;-1.706;2024-01-07T05:55:12;4.60;;;2.93;;
16824;SDS011;8529;48.108;-1.706;2024-01-07T05:57:39;7.00;;;3.47;;
16824;SDS011;8529;48.108;-1.706;2024-01-07T06:00:07;7.53;;;3.03;;
16824;SDS011;8529;48.108;-1.706;2024-01-07T06:02:36;7.10;;;3.27;;
16824;SDS011;8529;48.108;-1.706;2024-01-07T06:05:03;7.17;;;3.40;;
16824;SDS011;8529;48.108;-1.706;2024-01-07T06:07:30;6.53;;;3.07;;
16824;SDS011;8529;48.108;-1.706;2024-01-07T06:09:59;6.90;;;3.30;;
16824;SDS011;8529;48.108;-1.706;2024-01-07T06:12:26;18.77;;;14.23;;
16824;SDS011;8529;48.108;-1.706;2024-01-07T06:14:53;6.83;;;3.70;;
16824;SDS011;8529;48.108;-1.706;2024-01-07T06:17:20;7.00;;;3.60;;
16824;SDS011;8529;48.108;-1.706;2024-01-07T06:19:47;5.83;;;3.27;;
16824;SDS011;8529;48.108;-1.706;2024-01-07T06:22:14;5.33;;;3.07;;
16824;SDS011;8529;48.108;-1.706;2024-01-07T06:24:41;6.67;;;2.90;;
16824;SDS011;8529;48.108;-1.706;2024-01-07T06:27:10;5.70;;;3.17;;
16824;SDS011;8529;48.108;-1.706;2024-01-07T06:29:38;5.53;;;3.13;;
16824;SDS011;8529;48.108;-1.706;2024-01-07T06:32:06;6.23;;;3.30;;
16824;SDS011;8529;48.108;-1.706;2024-01-07T06:34:34;5.73;;;2.77;;
16824;SDS011;8529;48.108;-1.706;2024-01-07T06:37:02;5.57;;;3.47;;
16824;SDS011;8529;48.108;-1.706;2024-01-07T06:39:30;6.90;;;3.53;;
16824;SDS011;8529;48.108;-1.706;2024-01-07T06:41:59;7.43;;;3.47;;
16824;SDS011;8529;48.108;-1.706;2024-01-07T06:44:28;7.23;;;3.10;;
16824;SDS011;8529;48.108;-1.706;2024-01-07T06:46:55;6.07;;;3.30;;
16824;SDS011;8529;48.108;-1.706;2024-01-07T06:49:22;5.27;;;3.03;;
16824;SDS011;8529;48.108;-1.706;2024-01-07T06:51:49;6.13;;;3.17;;
16824;SDS011;8529;48.108;-1.706;2024-01-07T06:54:16;5.77;;;3.43;;
16824;SDS011;8529;48.108;-1.706;2024-01-07T06:56:43;6.53;;;3.17;;
16824;SDS011;8529;48.108;-1.706;2024-01-07T06:59:10;6.00;;;3.30;;
16824;SDS011;8529;48.108;-1.706;2024-01-07T07:01:39;6.67;;;3.40;;
16824;SDS011;8529;48.108;-1.706;2024-01-07T07:04:06;6.03;;;3.07;;
16824;SDS011;8529;48.108;-1.706;2024-01-07T07:06:33;5.40;;;3.20;;
16824;SDS011;8529;48.108;-1.706;2024-01-07T07:09:00;9.07;;;3.63;;
16824;SDS011;8529;48.108;-1.706;2024-01-07T07:11:27;6.67;;;3.43;;
16824;SDS011;8529;48.108;-1.706;2024-01-07T07:13:55;5.87;;;3.47;;
16824;SDS011;8529;48.108;-1.706;2024-01-07T07:16:22;5.50;;;2.67;;
16824;SDS011;8529;48.108;-1.706;2024-01-07T07:18:52;5.30;;;3.03;;
16824;SDS011;8529;48.108;-1.706;2024-01-07T07:21:19;6.47;;;2.63;;
16824;SDS011;8529;48.108;-1.706;2024-01-07T07:23:46;6.13;;;3.23;;
16824;SDS011;8529;48.108;-1.706;2024-01-07T07:26:13;4.53;;;2.80;;
16824;SDS011;8529;48.108;-1.706;2024-01-07T07:28:40;6.10;;;3.40;;
16824;SDS011;8529;48.108;-1.706;2024-01-07T07:31:07;6.17;;;3.10;;
16824;SDS011;8529;48.108;-1.706;2024-01-07T07:33:38;4.53;;;3.03;;
16824;SDS011;8529;48.108;-1.706;2024-01-07T07:36:06;5.80;;;3.20;;
16824;SDS011;8529;48.108;-1.706;2024-01-07T07:38:33;5.97;;;3.23;;
16824;SDS011;8529;48.108;-1.706;2024-01-07T07:41:00;8.03;;;3.53;;
16824;SDS011;8529;48.108;-1.706;2024-01-07T07:43:27;7.87;;;3.80;;
16824;SDS011;8529;48.108;-1.706;2024-01-07T07:45:54;5.70;;;3.10;;
16824;SDS011;8529;48.108;-1.706;2024-01-07T07:48:22;7.37;;;3.33;;
16824;SDS011;8529;48.108;-1.706;2024-01-07T07:50:51;6.23;;;3.33;;
16824;SDS011;8529;48.108;-1.706;2024-01-07T07:53:19;5.33;;;3.00;;
16824;SDS011;8529;48.108;-1.706;2024-01-07T07:55:46;6.27;;;3.40;;
16824;SDS011;8529;48.108;-1.706;2024-01-07T07:58:14;6.93;;;4.37;;
16824;SDS011;8529;48.108;-1.706;2024-01-07T08:00:42;5.47;;;3.47;;
16824;SDS011;8529;48.108;-1.706;2024-01-07T08:03:09;4.70;;;2.93;;
16824;SDS011;8529;48.108;-1.706;2024-01-07T08:05:36;6.17;;;3.40;;
16824;SDS011;8529;48.108;-1.706;2024-01-07T08:08:05;5.43;;;3.10;;
16824;SDS011;8529;48.108;-1.706;2024-01-07T08:10:33;7.80;;;3.40;;
16824;SDS011;8529;48.108;-1.706;2024-01-07T08:13:01;5.63;;;2.97;;
16824;SDS011;8529;48.108;-1.706;2024-01-07T08:15:28;8.47;;;3.40;;
16824;SDS011;8529;48.108;-1.706;2024-01-07T08:17:55;5.67;;;3.27;;
16824;SDS011;8529;48.108;-1.706;2024-01-07T08:20:22;7.03;;;4.00;;
16824;SDS011;8529;48.108;-1.706;2024-01-07T08:22:49;6.27;;;3.13;;
16824;SDS011;8529;48.108;-1.706;2024-01-07T08:25:16;6.00;;;3.20;;
16824;SDS011;8529;48.108;-1.706;2024-01-07T08:27:45;6.67;;;3.37;;
16824;SDS011;8529;48.108;-1.706;2024-01-07T08:30:12;5.43;;;3.03;;
16824;SDS011;8529;48.108;-1.706;2024-01-07T08:32:39;8.17;;;3.20;;
16824;SDS011;8529;48.108;-1.706;2024-01-07T08:35:07;5.47;;;3.37;;
16824;SDS011;8529;48.108;-1.706;2024-01-07T08:37:35;7.67;;;3.07;;
16824;SDS011;8529;48.108;-1.706;2024-01-07T08:40:02;6.00;;;3.10;;
16824;SDS011;8529;48.108;-1.706;2024-01-07T08:42:30;3.83;;;2.37;;
16824;SDS011;8529;48.108;-1.706;2024-01-07T08:44:58;4.73;;;2.73;;
16824;SDS011;8529;48.108;-1.706;2024-01-07T08:47:26;7.73;;;2.47;;
16824;SDS011;8529;48.108;-1.706;2024-01-07T08:49:53;5.77;;;2.97;;
16824;SDS011;8529;48.108;-1.706;2024-01-07T08:52:20;4.13;;;2.83;;
16824;SDS011;8529;48.108;-1.706;2024-01-07T08:54:47;4.17;;;2.60;;
16824;SDS011;8529;48.108;-1.706;2024-01-07T08:57:14;5.57;;;2.43;;
16824;SDS011;8529;48.108;-1.706;2024-01-07T08:59:42;4.77;;;2.67;;
16824;SDS011;8529;48.108;-1.706;2024-01-07T09:02:10;6.17;;;2.43;;
16824;SDS011;8529;48.108;-1.706;2024-01-07T09:04:38;4.17;;;2.40;;
16824;SDS011;8529;48.108;-1.706;2024-01-07T09:07:05;5.13;;;3.00;;
16824;SDS011;8529;48.108;-1.706;2024-01-07T09:09:32;3.43;;;2.40;;
16824;SDS011;8529;48.108;-1.706;2024-01-07T09:12:00;4.47;;;2.10;;
16824;SDS011;8529;48.108;-1.706;2024-01-07T09:14:28;5.60;;;2.20;;
16824;SDS011;8529;48.108;-1.706;2024-01-07T09:16:55;4.50;;;2.53;;
16824;SDS011;8529;48.108;-1.706;2024-01-07T09:19:24;6.60;;;2.87;;
16824;SDS011;8529;48.108;-1.706;2024-01-07T09:21:51;4.63;;;2.37;;
16824;SDS011;8529;48.108;-1.706;2024-01-07T09:24:18;4.83;;;3.43;;
16824;SDS011;8529;48.108;-1.706;2024-01-07T09:26:45;6.57;;;2.20;;
16824;SDS011;8529;48.108;-1.706;2024-01-07T09:29:13;4.43;;;2.70;;
16824;SDS011;8529;48.108;-1.706;2024-01-07T09:31:40;5.67;;;2.37;;
16824;SDS011;8529;48.108;-1.706;2024-01-07T09:34:07;4.67;;;2.33;;
16824;SDS011;8529;48.108;-1.706;2024-01-07T09:36:35;7.87;;;2.97;;
16824;SDS011;8529;48.108;-1.706;2024-01-07T09:39:03;5.33;;;2.23;;
16824;SDS011;8529;48.108;-1.706;2024-01-07T09:41:31;3.80;;;2.00;;
16824;SDS011;8529;48.108;-1.706;2024-01-07T09:43:59;6.67;;;2.27;;
16824;SDS011;8529;48.108;-1.706;2024-01-07T09:46:26;5.33;;;2.63;;
16824;SDS011;8529;48.108;-1.706;2024-01-07T09:48:56;4.50;;;2.17;;
16824;SDS011;8529;48.108;-1.706;2024-01-07T09:51:23;5.57;;;1.97;;
16824;SDS011;8529;48.108;-1.706;2024-01-07T09:53:53;4.57;;;1.60;;
16824;SDS011;8529;48.108;-1.706;2024-01-07T09:56:24;3.50;;;1.90;;
16824;SDS011;8529;48.108;-1.706;2024-01-07T09:58:52;3.47;;;1.90;;
16824;SDS011;8529;48.108;-1.706;2024-01-07T10:01:19;3.80;;;1.77;;
16824;SDS011;8529;48.108;-1.706;2024-01-07T10:03:46;3.57;;;1.80;;
16824;SDS011;8529;48.108;-1.706;2024-01-07T10:06:13;4.27;;;1.60;;
16824;SDS011;8529;48.108;-1.706;2024-01-07T10:08:44;3.00;;;1.30;;
16824;SDS011;8529;48.108;-1.706;2024-01-07T10:11:14;6.47;;;2.00;;
16824;SDS011;8529;48.108;-1.706;2024-01-07T10:13:41;4.43;;;1.43;;
16824;SDS011;8529;48.108;-1.706;2024-01-07T10:16:08;4.93;;;1.20;;
16824;SDS011;8529;48.108;-1.706;2024-01-07T10:18:36;5.10;;;1.67;;
16824;SDS011;8529;48.108;-1.706;2024-01-07T10:21:03;4.77;;;1.57;;
16824;SDS011;8529;48.108;-1.706;2024-01-07T10:23:31;2.93;;;1.60;;
16824;SDS011;8529;48.108;-1.706;2024-01-07T10:25:58;3.13;;;1.30;;
16824;SDS011;8529;48.108;-1.706;2024-01-07T10:28:28;4.63;;;1.30;;
16824;SDS011;8529;48.108;-1.706;2024-01-07T10:30:56;5.03;;;1.73;;
16824;SDS011;8529;48.108;-1.706;2024-01-07T10:33:23;2.87;;;1.20;;
16824;SDS011;8529;48.108;-1.706;2024-01-07T10:35:51;5.70;;;1.77;;
16824;SDS011;8529;48.108;-1.706;2024-01-07T10:38:19;4.07;;;1.83;;
16824;SDS011;8529;48.108;-1.706;2024-01-07T10:40:48;8.60;;;1.40;;
16824;SDS011;8529;48.108;-1.706;2024-01-07T10:43:16;5.70;;;1.50;;
16824;SDS011;8529;48.108;-1.706;2024-01-07T10:45:46;2.77;;;1.40;;
16824;SDS011;8529;48.108;-1.706;2024-01-07T10:48:14;3.50;;;1.30;;
16824;SDS011;8529;48.108;-1.706;2024-01-07T10:50:45;3.47;;;1.30;;
16824;SDS011;8529;48.108;-1.706;2024-01-07T10:53:17;4.07;;;1.60;;
16824;SDS011;8529;48.108;-1.706;2024-01-07T10:55:48;4.20;;;1.50;;
16824;SDS011;8529;48.108;-1.706;2024-01-07T10:58:21;6.70;;;1.20;;
16824;SDS011;8529;48.108;-1.706;2024-01-07T11:00:50;5.17;;;1.40;;
16824;SDS011;8529;48.108;-1.706;2024-01-07T11:03:18;3.93;;;1.27;;
16824;SDS011;8529;48.108;-1.706;2024-01-07T11:05:52;4.90;;;1.60;;
16824;SDS011;8529;48.108;-1.706;2024-01-07T11:08:23;3.63;;;1.37;;
16824;SDS011;8529;48.108;-1.706;2024-01-07T11:10:53;5.70;;;1.30;;
16824;SDS011;8529;48.108;-1.706;2024-01-07T11:13:31;2.40;;;1.43;;
16824;SDS011;8529;48.108;-1.706;2024-01-07T11:16:01;9.13;;;1.93;;
16824;SDS011;8529;48.108;-1.706;2024-01-07T11:18:28;6.00;;;1.60;;
16824;SDS011;8529;48.108;-1.706;2024-01-07T11:20:59;4.97;;;1.30;;
16824;SDS011;8529;48.108;-1.706;2024-01-07T11:23:28;3.17;;;1.30;;
16824;SDS011;8529;48.108;-1.706;2024-01-07T11:25:56;2.63;;;1.00;;
16824;SDS011;8529;48.108;-1.706;2024-01-07T11:28:42;4.83;;;1.60;;
16824;SDS011;8529;48.108;-1.706;2024-01-07T11:31:11;3.60;;;1.10;;
16824;SDS011;8529;48.108;-1.706;2024-01-07T11:33:38;6.73;;;1.50;;
16824;SDS011;8529;48.108;-1.706;2024-01-07T11:36:06;2.93;;;1.10;;
16824;SDS011;8529;48.108;-1.706;2024-01-07T11:38:33;2.97;;;1.10;;
16824;SDS011;8529;48.108;-1.706;2024-01-07T11:41:02;1.87;;;1.10;;
16824;SDS011;8529;48.108;-1.706;2024-01-07T11:43:30;2.43;;;1.00;;
16824;SDS011;8529;48.108;-1.706;2024-01-07T11:45:58;2.70;;;1.57;;
16824;SDS011;8529;48.108;-1.706;2024-01-07T11:48:27;5.20;;;1.40;;
16824;SDS011;8529;48.108;-1.706;2024-01-07T11:50:54;4.17;;;1.90;;
16824;SDS011;8529;48.108;-1.706;2024-01-07T11:53:21;3.97;;;1.70;;
16824;SDS011;8529;48.108;-1.706;2024-01-07T11:55:49;4.63;;;2.30;;
16824;SDS011;8529;48.108;-1.706;2024-01-07T11:58:16;4.77;;;1.90;;
16824;SDS011;8529;48.108;-1.706;2024-01-07T12:00:43;7.27;;;1.70;;
16824;SDS011;8529;48.108;-1.706;2024-01-07T12:03:10;4.43;;;1.63;;
16824;SDS011;8529;48.108;-1.706;2024-01-07T12:05:38;4.40;;;1.17;;
16824;SDS011;8529;48.108;-1.706;2024-01-07T12:08:05;2.87;;;1.00;;
16824;SDS011;8529;48.108;-1.706;2024-01-07T12:10:33;5.67;;;1.10;;
16824;SDS011;8529;48.108;-1.706;2024-01-07T12:13:00;2.33;;;1.00;;
16824;SDS011;8529;48.108;-1.706;2024-01-07T12:15:28;4.07;;;0.90;;
16824;SDS011;8529;48.108;-1.706;2024-01-07T12:17:56;3.97;;;0.97;;
16824;SDS011;8529;48.108;-1.706;2024-01-07T12:20:26;9.13;;;1.80;;
16824;SDS011;8529;48.108;-1.706;2024-01-07T12:22:57;2.72;;;1.30;;
16824;SDS011;8529;48.108;-1.706;2024-01-07T12:25:24;3.42;;;1.00;;
16824;SDS011;8529;48.108;-1.706;2024-01-07T12:27:52;1.70;;;1.00;;
16824;SDS011;8529;48.108;-1.706;2024-01-07T12:30:20;4.60;;;1.30;;
16824;SDS011;8529;48.108;-1.706;2024-01-07T12:32:47;3.38;;;1.30;;
16824;SDS011;8529;48.108;-1.706;2024-01-07T12:35:14;2.65;;;1.30;;
16824;SDS011;8529;48.108;-1.706;2024-01-07T12:37:42;4.75;;;1.25;;
16824;SDS011;8529;48.108;-1.706;2024-01-07T12:40:11;3.60;;;1.10;;
16824;SDS011;8529;48.108;-1.706;2024-01-07T12:42:38;4.53;;;1.33;;
16824;SDS011;8529;48.108;-1.706;2024-01-07T12:45:10;1.55;;;1.00;;
16824;SDS011;8529;48.108;-1.706;2024-01-07T12:47:38;2.78;;;1.23;;
16824;SDS011;8529;48.108;-1.706;2024-01-07T12:50:06;3.70;;;1.23;;
16824;SDS011;8529;48.108;-1.706;2024-01-07T12:52:34;7.97;;;1.35;;
16824;SDS011;8529;48.108;-1.706;2024-01-07T12:55:02;3.20;;;1.20;;
16824;SDS011;8529;48.108;-1.706;2024-01-07T12:57:30;3.17;;;0.93;;
16824;SDS011;8529;48.108;-1.706;2024-01-07T12:59:58;2.05;;;0.77;;
16824;SDS011;8529;48.108;-1.706;2024-01-07T13:02:25;4.28;;;1.88;;
16824;SDS011;8529;48.108;-1.706;2024-01-07T13:04:53;5.78;;;1.42;;
16824;SDS011;8529;48.108;-1.706;2024-01-07T13:07:20;3.30;;;1.20;;
16824;SDS011;8529;48.108;-1.706;2024-01-07T13:09:48;4.38;;;1.45;;
16824;SDS011;8529;48.108;-1.706;2024-01-07T13:12:16;3.72;;;1.17;;
16824;SDS011;8529;48.108;-1.706;2024-01-07T13:14:45;2.80;;;0.98;;
16824;SDS011;8529;48.108;-1.706;2024-01-07T13:17:13;2.25;;;1.00;;
16824;SDS011;8529;48.108;-1.706;2024-01-07T13:19:40;4.60;;;1.70;;
16824;SDS011;8529;48.108;-1.706;2024-01-07T13:22:07;4.03;;;1.17;;
16824;SDS011;8529;48.108;-1.706;2024-01-07T13:24:36;0.90;;;0.55;;
16824;SDS011;8529;48.108;-1.706;2024-01-07T13:27:03;3.78;;;1.27;;
16824;SDS011;8529;48.108;-1.706;2024-01-07T13:29:30;2.17;;;1.00;;
16824;SDS011;8529;48.108;-1.706;2024-01-07T13:31:59;2.50;;;1.02;;
16824;SDS011;8529;48.108;-1.706;2024-01-07T13:34:26;4.78;;;1.00;;
16824;SDS011;8529;48.108;-1.706;2024-01-07T13:36:55;2.40;;;0.95;;
16824;SDS011;8529;48.108;-1.706;2024-01-07T13:39:22;3.78;;;0.98;;
16824;SDS011;8529;48.108;-1.706;2024-01-07T13:41:49;4.72;;;1.55;;
16824;SDS011;8529;48.108;-1.706;2024-01-07T13:44:16;2.88;;;1.05;;
16824;SDS011;8529;48.108;-1.706;2024-01-07T13:46:44;4.50;;;1.50;;
16824;SDS011;8529;48.108;-1.706;2024-01-07T13:49:13;4.70;;;1.13;;
16824;SDS011;8529;48.108;-1.706;2024-01-07T13:51:40;3.00;;;1.00;;
16824;SDS011;8529;48.108;-1.706;2024-01-07T13:54:07;4.47;;;1.30;;
16824;SDS011;8529;48.108;-1.706;2024-01-07T13:56:35;1.95;;;1.35;;
16824;SDS011;8529;48.108;-1.706;2024-01-07T13:59:06;2.30;;;0.80;;
16824;SDS011;8529;48.108;-1.706;2024-01-07T14:01:33;3.08;;;1.50;;
16824;SDS011;8529;48.108;-1.706;2024-01-07T14:04:00;2.65;;;0.80;;
16824;SDS011;8529;48.108;-1.706;2024-01-07T14:06:29;1.80;;;0.80;;
16824;SDS011;8529;48.108;-1.706;2024-01-07T14:08:56;4.55;;;2.08;;
16824;SDS011;8529;48.108;-1.706;2024-01-07T14:11:24;1.30;;;0.70;;
16824;SDS011;8529;48.108;-1.706;2024-01-07T14:13:53;3.75;;;1.20;;
16824;SDS011;8529;48.108;-1.706;2024-01-07T14:16:20;2.50;;;1.20;;
16824;SDS011;8529;48.108;-1.706;2024-01-07T14:18:47;1.70;;;1.00;;
16824;SDS011;8529;48.108;-1.706;2024-01-07T14:21:14;1.90;;;0.93;;
16824;SDS011;8529;48.108;-1.706;2024-01-07T14:23:43;5.17;;;1.10;;
16824;SDS011;8529;48.108;-1.706;2024-01-07T14:26:10;2.67;;;0.90;;
16824;SDS011;8529;48.108;-1.706;2024-01-07T14:28:37;2.27;;;1.07;;
16824;SDS011;8529;48.108;-1.706;2024-01-07T14:31:04;6.80;;;1.10;;
16824;SDS011;8529;48.108;-1.706;2024-01-07T14:33:32;2.53;;;1.00;;
16824;SDS011;8529;48.108;-1.706;2024-01-07T14:35:59;1.92;;;0.95;;
16824;SDS011;8529;48.108;-1.706;2024-01-07T14:38:26;3.57;;;1.30;;
16824;SDS011;8529;48.108;-1.706;2024-01-07T14:40:54;2.00;;;1.25;;
16824;SDS011;8529;48.108;-1.706;2024-01-07T14:43:22;3.87;;;1.10;;
16824;SDS011;8529;48.108;-1.706;2024-01-07T14:45:49;2.70;;;0.90;;
16824;SDS011;8529;48.108;-1.706;2024-01-07T14:48:16;4.30;;;1.70;;